Time;durP1;ratioP1;P1;durP2;ratioP2;P2;SDS_P1;SDS_P2;PMS_P1;PMS_P2;Temp;Humidity;BMP_temperature;BMP_pressure;BME280_temperature;BME280_humidity;BME280_pressure;Samples;Min_cycle;Max_cycle;Signal;HPM_P1;HPM_P2
2021/08/17 00:00:56;;;;;;;;;20.25;17.75;;;;;19.23;42.49;101695.22;5081946;27;45485;-48
2021/08/17 00:03:21;;;;;;;;;18.50;16.25;;;;;19.21;42.52;101697.06;5080819;28;46222;-50
2021/08/17 00:05:46;;;;;;;;;16.00;16.00;;;;;19.16;42.73;101702.53;5081529;28;45294;-47
2021/08/17 00:08:12;;;;;;;;;24.25;19.00;;;;;19.14;42.79;101699.06;5081665;28;45303;-46
2021/08/17 00:10:39;;;;;;;;;17.50;16.50;;;;;19.12;43.06;101695.59;5081606;28;45398;-46
2021/08/17 00:13:04;;;;;;;;;21.25;19.75;;;;;19.11;42.72;101701.84;5081253;28;46350;-46
2021/08/17 00:15:30;;;;;;;;;21.25;18.50;;;;;19.10;42.64;101696.56;5080196;28;45311;-50
2021/08/17 00:17:55;;;;;;;;;19.25;16.75;;;;;19.09;42.93;101695.69;5081555;28;45531;-45
2021/08/17 00:20:21;;;;;;;;;20.00;17.25;;;;;19.09;42.89;101701.00;5081536;27;45283;-46
2021/08/17 00:22:47;;;;;;;;;21.75;20.00;;;;;19.09;42.65;101701.00;5081224;28;45568;-48
2021/08/17 00:25:12;;;;;;;;;18.25;17.50;;;;;19.10;42.93;101699.22;5081499;28;45263;-46
2021/08/17 00:27:38;;;;;;;;;22.00;19.00;;;;;19.09;43.10;101701.00;5081281;28;45242;-50
2021/08/17 00:30:06;;;;;;;;;19.25;16.25;;;;;19.06;42.93;101695.78;5081367;28;45341;-48
2021/08/17 00:32:31;;;;;;;;;27.50;19.50;;;;;19.02;43.17;101694.16;5081145;28;46640;-49
2021/08/17 00:34:56;;;;;;;;;23.50;19.75;;;;;18.97;43.20;101691.66;5080937;27;45433;-45
2021/08/17 00:37:22;;;;;;;;;20.25;18.00;;;;;18.95;43.18;101692.63;5081385;28;45433;-46
2021/08/17 00:39:47;;;;;;;;;19.00;16.75;;;;;18.91;43.48;101686.53;5081234;28;45309;-45
2021/08/17 00:42:13;;;;;;;;;19.25;17.25;;;;;18.89;43.75;101690.16;5079553;28;47440;-50
2021/08/17 00:44:38;;;;;;;;;21.00;17.25;;;;;18.86;43.48;101695.59;5081141;28;45315;-49
2021/08/17 00:47:04;;;;;;;;;22.00;16.75;;;;;18.83;43.81;101694.75;5081123;28;45349;-46
2021/08/17 00:49:31;;;;;;;;;18.25;15.00;;;;;18.79;43.64;101682.47;5081109;28;45333;-49
2021/08/17 00:52:01;;;;;;;;;22.50;16.00;;;;;18.76;43.80;101693.22;5080563;27;46428;-50
2021/08/17 00:54:27;;;;;;;;;21.75;16.25;;;;;18.72;44.11;101690.72;5080909;28;45361;-46
2021/08/17 00:57:00;;;;;;;;;19.25;15.00;;;;;18.68;43.80;101684.63;5080813;28;45319;-45
2021/08/17 00:59:27;;;;;;;;;21.00;15.75;;;;;18.67;44.02;101689.06;5081062;28;45473;-44
2021/08/17 01:01:53;;;;;;;;;18.00;15.50;;;;;18.64;44.16;101680.31;5080598;28;45406;-46
2021/08/17 01:04:18;;;;;;;;;15.50;14.75;;;;;18.62;44.10;101687.50;5080744;28;45249;-47
2021/08/17 01:06:44;;;;;;;;;16.00;13.50;;;;;18.62;44.14;101684.84;5080605;28;45307;-48
2021/08/17 01:09:09;;;;;;;;;16.50;14.25;;;;;18.61;43.96;101685.75;5080878;28;45307;-47
2021/08/17 01:11:37;;;;;;;;;14.75;14.25;;;;;18.59;44.24;101680.47;5079344;28;46996;-49
2021/08/17 01:14:03;;;;;;;;;20.50;15.25;;;;;18.55;44.19;101672.63;5079505;28;45281;-46
2021/08/17 01:16:28;;;;;;;;;17.75;15.50;;;;;18.57;44.38;101677.00;5080675;28;45223;-47
2021/08/17 01:18:53;;;;;;;;;17.00;16.00;;;;;18.58;44.35;101683.16;5080660;28;45525;-46
2021/08/17 01:21:19;;;;;;;;;20.75;17.50;;;;;18.54;44.51;101681.53;5080007;27;46126;-45
2021/08/17 01:23:47;;;;;;;;;19.50;16.25;;;;;18.52;44.40;101678.94;5080542;28;45271;-47
2021/08/17 01:26:13;;;;;;;;;14.75;14.75;;;;;18.51;44.28;101687.84;5080496;28;45474;-47
2021/08/17 01:28:38;;;;;;;;;19.25;16.75;;;;;18.47;44.50;101686.19;5080235;28;45525;-47
2021/08/17 01:31:07;;;;;;;;;21.00;19.00;;;;;18.46;44.23;101695.97;5080267;27;45425;-47
2021/08/17 01:33:33;;;;;;;;;14.50;14.00;;;;;18.45;44.25;101688.03;5080396;28;45227;-50
2021/08/17 01:36:00;;;;;;;;;21.25;15.00;;;;;18.43;44.72;101680.09;5080201;27;45278;-48
2021/08/17 01:38:26;;;;;;;;;19.00;16.25;;;;;18.32;44.70;101672.44;5080332;28;45315;-48
2021/08/17 01:40:51;;;;;;;;;15.50;15.25;;;;;18.42;44.71;101688.16;5078752;28;46706;-44
2021/08/17 01:43:17;;;;;;;;;18.75;17.75;;;;;18.39;44.63;101683.78;5080170;28;45471;-47
2021/08/17 01:45:44;;;;;;;;;18.00;15.75;;;;;18.41;44.64;101687.25;5078956;28;45361;-46
2021/08/17 01:48:11;;;;;;;;;20.75;17.00;;;;;18.37;44.63;101690.09;5080395;28;45463;-45
2021/08/17 01:50:36;;;;;;;;;15.75;13.25;;;;;18.35;45.02;101692.78;5079643;28;45340;-46
2021/08/17 01:53:02;;;;;;;;;17.50;16.00;;;;;18.33;44.71;101694.63;5080018;28;45293;-49
2021/08/17 01:55:27;;;;;;;;;16.50;11.25;;;;;18.22;44.94;101680.78;5080496;28;45207;-45
2021/08/17 01:57:52;;;;;;;;;15.50;14.25;;;;;18.29;45.01;101687.66;5080025;28;45231;-46
2021/08/17 02:00:18;;;;;;;;;20.50;17.25;;;;;18.26;44.93;101682.44;5079670;27;45340;-45
2021/08/17 02:02:43;;;;;;;;;19.50;16.25;;;;;18.23;45.30;101683.41;5080108;28;45589;-47
2021/08/17 02:05:09;;;;;;;;;21.50;17.00;;;;;18.22;45.17;101680.78;5079766;28;45394;-47
2021/08/17 02:07:35;;;;;;;;;19.25;17.00;;;;;18.18;44.98;101680.88;5080031;28;45299;-48
2021/08/17 02:10:00;;;;;;;;;25.75;21.00;;;;;18.17;45.02;101688.91;5079836;27;45429;-47
2021/08/17 02:12:26;;;;;;;;;18.25;15.75;;;;;18.15;45.46;101677.44;5079863;28;45266;-47
2021/08/17 02:14:51;;;;;;;;;19.25;16.00;;;;;18.09;45.48;101675.00;5079994;28;45524;-47
2021/08/17 02:17:16;;;;;;;;;16.25;12.75;;;;;18.09;45.58;101682.97;5079964;28;45333;-47
2021/08/17 02:19:42;;;;;;;;;23.25;17.75;;;;;18.03;45.59;101679.56;5079428;27;45341;-46
2021/08/17 02:22:07;;;;;;;;;17.50;14.75;;;;;17.97;45.58;101682.41;5079428;28;45355;-47
2021/08/17 02:24:32;;;;;;;;;19.25;17.00;;;;;17.94;45.79;101681.66;5079823;28;45240;-45
2021/08/17 02:26:58;;;;;;;;;12.00;10.25;;;;;17.89;45.85;101680.88;5082570;28;45353;-48
2021/08/17 02:29:23;;;;;;;;;23.75;15.50;;;;;17.82;45.93;101675.75;5081704;28;46162;-45
2021/08/17 02:31:49;;;;;;;;;18.75;13.50;;;;;17.79;46.19;101672.31;5083388;27;45343;-47
2021/08/17 02:34:14;;;;;;;;;20.00;16.25;;;;;17.75;46.04;101675.94;5083105;28;45316;-47
2021/08/17 02:36:40;;;;;;;;;20.00;16.50;;;;;17.69;46.21;101671.69;5083115;28;45411;-47
2021/08/17 02:39:05;;;;;;;;;16.00;13.75;;;;;17.64;46.34;101681.59;5082917;28;45280;-50
2021/08/17 02:41:31;;;;;;;;;14.50;13.50;;;;;17.62;46.14;101681.66;5083163;27;45324;-45
2021/08/17 02:43:56;;;;;;;;;22.00;16.00;;;;;17.58;46.30;101668.47;5082998;28;45309;-47
2021/08/17 02:46:21;;;;;;;;;16.50;14.25;;;;;17.55;46.28;101674.75;5083003;28;45208;-47
2021/08/17 02:48:47;;;;;;;;;14.75;14.25;;;;;17.52;46.19;101681.03;5082811;28;46120;-46
2021/08/17 02:51:12;;;;;;;;;17.75;14.50;;;;;17.51;46.37;101681.09;5081582;28;45393;-45
2021/08/17 02:53:37;;;;;;;;;20.75;17.50;;;;;17.47;46.55;101679.41;5082931;28;45165;-48
2021/08/17 02:56:03;;;;;;;;;18.75;14.00;;;;;17.45;46.53;101687.44;5082944;28;45313;-47
2021/08/17 02:58:29;;;;;;;;;15.75;13.00;;;;;17.45;46.69;101686.56;5082665;28;45398;-45
2021/08/17 03:00:54;;;;;;;;;18.00;16.00;;;;;17.43;46.69;101686.59;5082890;27;45212;-45
2021/08/17 03:03:19;;;;;;;;;20.00;13.00;;;;;17.42;46.55;101679.56;5081505;28;45184;-45
2021/08/17 03:05:45;;;;;;;;;14.25;13.00;;;;;17.37;46.74;101673.47;5082526;28;45245;-47
2021/08/17 03:08:10;;;;;;;;;16.75;11.00;;;;;17.38;46.61;101680.53;5082548;28;46209;-47
2021/08/17 03:10:38;;;;;;;;;17.75;14.75;;;;;17.37;46.45;101681.44;5081351;27;45259;-47
2021/08/17 03:13:05;;;;;;;;;13.75;13.75;;;;;17.36;46.47;101683.25;5064461;28;45402;-47
2021/08/17 03:15:34;;;;;;;;;14.75;14.25;;;;;17.36;46.90;101679.72;5082574;28;45499;-47
2021/08/17 03:18:01;;;;;;;;;17.50;14.50;;;;;17.36;46.59;101679.72;5082336;28;46254;-46
2021/08/17 03:20:27;;;;;;;;;15.00;12.25;;;;;17.33;46.85;101674.47;5082183;27;45369;-49
2021/08/17 03:22:52;;;;;;;;;19.75;17.75;;;;;17.32;46.68;101675.38;5080997;28;45305;-46
2021/08/17 03:25:18;;;;;;;;;16.25;16.25;;;;;17.29;47.15;101672.84;5082339;28;45600;-48
2021/08/17 03:27:43;;;;;;;;;21.25;17.25;;;;;17.27;46.93;101672.00;5080760;28;46337;-46
2021/08/17 03:30:12;;;;;;;;;20.25;18.25;;;;;17.25;47.25;101660.56;5082351;28;45271;-45
2021/08/17 03:32:38;;;;;;;;;21.00;19.00;;;;;17.23;47.17;101673.84;5082257;28;45279;-49
2021/08/17 03:35:04;;;;;;;;;19.75;19.25;;;;;17.21;47.41;101673.91;5082024;27;45504;-48
2021/08/17 03:37:30;;;;;;;;;23.75;18.00;;;;;17.17;47.11;101666.94;5079751;28;46449;-46
2021/08/17 03:39:56;;;;;;;;;21.00;16.75;;;;;17.16;47.04;101670.50;5082040;27;45391;-44
2021/08/17 03:42:22;;;;;;;;;15.50;14.25;;;;;17.16;47.45;101674.97;5082126;28;45395;-47
2021/08/17 03:44:48;;;;;;;;;21.25;17.25;;;;;17.13;47.44;101673.25;5082103;28;45457;-46
2021/08/17 03:47:13;;;;;;;;;20.50;18.75;;;;;17.09;47.29;101663.59;5081848;28;46032;-46
2021/08/17 03:49:38;;;;;;;;;16.50;16.25;;;;;17.09;47.22;101665.41;5082073;28;45279;-44
2021/08/17 03:52:04;;;;;;;;;19.50;17.00;;;;;17.06;47.36;101664.56;5081821;27;45304;-46
2021/08/17 03:54:29;;;;;;;;;18.25;16.00;;;;;17.05;47.33;101667.25;5082025;28;45594;-45
2021/08/17 03:56:55;;;;;;;;;19.50;14.50;;;;;17.02;47.44;101659.41;5081867;28;46205;-45
2021/08/17 03:59:20;;;;;;;;;22.00;17.50;;;;;17.02;47.66;101665.56;5081910;28;45344;-44
2021/08/17 04:01:46;;;;;;;;;20.75;18.00;;;;;16.96;47.71;101656.91;5080665;28;45407;-47
2021/08/17 04:04:12;;;;;;;;;17.75;12.75;;;;;16.98;47.77;101663.03;5082032;28;45533;-47
2021/08/17 04:06:37;;;;;;;;;16.50;15.50;;;;;16.95;47.74;101665.78;5081249;28;45283;-46
2021/08/17 04:09:03;;;;;;;;;19.50;16.50;;;;;16.89;47.96;101659.69;5081790;28;45245;-46
2021/08/17 04:11:30;;;;;;;;;19.00;16.00;;;;;16.90;47.58;101666.75;5081849;27;45235;-49
2021/08/17 04:13:55;;;;;;;;;17.75;16.50;;;;;16.90;47.34;101672.06;5081564;28;45231;-49
2021/08/17 04:16:20;;;;;;;;;19.50;18.00;;;;;16.86;47.89;101665.06;5081365;28;45216;-47
2021/08/17 04:18:46;;;;;;;;;16.75;13.75;;;;;16.85;47.71;101665.09;5080330;28;45180;-48
2021/08/17 04:21:11;;;;;;;;;17.75;15.00;;;;;16.87;47.68;101666.81;5080103;28;45330;-45
2021/08/17 04:23:37;;;;;;;;;20.75;18.25;;;;;16.87;47.96;101668.59;5081248;28;45429;-45
2021/08/17 04:26:02;;;;;;;;;21.75;16.75;;;;;16.85;47.67;101667.75;5081230;28;46178;-46
2021/08/17 04:28:28;;;;;;;;;18.75;15.25;;;;;16.85;47.87;101663.31;5080068;28;45356;-47
2021/08/17 04:30:54;;;;;;;;;27.25;22.00;;;;;16.86;47.62;101658.88;5081452;27;45256;-47
2021/08/17 04:33:20;;;;;;;;;19.75;17.25;;;;;16.87;47.69;101655.31;5081243;28;45543;-44
2021/08/17 04:35:45;;;;;;;;;19.75;17.50;;;;;16.86;47.84;101651.78;5081018;27;45232;-47
2021/08/17 04:38:10;;;;;;;;;22.00;18.25;;;;;16.86;47.97;101656.22;5081306;28;45323;-49
2021/08/17 04:40:36;;;;;;;;;18.75;16.75;;;;;16.83;47.79;101658.94;5081261;28;45307;-49
2021/08/17 04:43:01;;;;;;;;;18.75;16.00;;;;;16.84;48.09;101653.63;5081170;28;46546;-47
2021/08/17 04:45:27;;;;;;;;;16.75;16.00;;;;;16.84;47.74;101650.06;5081017;28;45285;-49
2021/08/17 04:47:53;;;;;;;;;18.00;15.50;;;;;16.84;47.98;101663.34;5081086;28;45158;-47
2021/08/17 04:50:20;;;;;;;;;21.00;16.25;;;;;16.83;48.07;101659.84;5080714;28;45387;-46
2021/08/17 04:52:46;;;;;;;;;17.00;15.25;;;;;16.83;48.22;101656.28;5081083;28;45231;-45
2021/08/17 04:55:12;;;;;;;;;22.50;18.25;;;;;16.83;48.13;101661.59;5080827;28;45331;-45
2021/08/17 04:57:52;;;;;;;;;16.75;16.00;;;;;16.83;48.34;101665.16;5080890;28;45399;-46
2021/08/17 05:00:19;;;;;;;;;16.50;14.50;;;;;16.83;47.97;101665.16;5080775;27;45489;-46
2021/08/17 05:02:44;;;;;;;;;17.25;14.50;;;;;16.82;48.07;101659.88;5080795;28;45476;-47
2021/08/17 05:05:11;;;;;;;;;18.50;17.50;;;;;16.85;48.19;101663.31;5080447;28;45292;-46
2021/08/17 05:07:38;;;;;;;;;20.75;14.75;;;;;16.87;48.23;101661.50;5080932;28;45364;-46
2021/08/17 05:10:05;;;;;;;;;17.25;16.50;;;;;16.88;48.12;101663.25;5080767;28;45248;-45
2021/08/17 05:12:30;;;;;;;;;19.25;15.25;;;;;16.89;48.27;101667.66;5080585;28;45468;-45
2021/08/17 05:14:56;;;;;;;;;17.00;14.00;;;;;16.89;48.52;101665.00;5080595;28;45287;-49
2021/08/17 05:17:21;;;;;;;;;21.50;16.25;;;;;16.87;48.41;101664.16;5080875;28;45462;-48
2021/08/17 05:19:46;;;;;;;;;17.00;15.75;;;;;16.87;48.51;101661.50;5080491;28;45316;-48
2021/08/17 05:22:11;;;;;;;;;17.75;14.00;;;;;16.90;48.29;101672.06;5079307;28;45173;-46
2021/08/17 05:24:37;;;;;;;;;17.25;14.25;;;;;16.93;48.25;101675.56;5080466;28;46270;-45
2021/08/17 05:27:02;;;;;;;;;16.50;13.75;;;;;16.93;48.60;101684.41;5080411;28;45405;-46
2021/08/17 05:29:28;;;;;;;;;17.50;14.75;;;;;16.95;48.46;101681.69;5080703;28;45210;-47
2021/08/17 05:31:53;;;;;;;;;14.50;14.00;;;;;16.95;48.52;101684.34;5080517;27;45226;-50
2021/08/17 05:34:18;;;;;;;;;15.25;15.25;;;;;16.96;48.49;101678.13;5080198;28;46121;-46
2021/08/17 05:36:43;;;;;;;;;21.25;17.50;;;;;16.94;48.57;101682.59;5080370;28;45347;-45
2021/08/17 05:39:09;;;;;;;;;16.25;15.75;;;;;16.95;48.64;101684.34;5080509;28;45491;-46
2021/08/17 05:41:34;;;;;;;;;13.50;12.75;;;;;16.96;48.45;101686.09;5080366;27;45290;-50
2021/08/17 05:43:59;;;;;;;;;15.25;15.25;;;;;16.97;48.77;101691.38;5080052;28;46015;-47
2021/08/17 05:46:25;;;;;;;;;16.75;14.00;;;;;16.97;48.59;101693.16;5080278;28;45489;-49
2021/08/17 05:48:50;;;;;;;;;13.75;12.00;;;;;16.99;48.77;101699.28;5080352;28;45399;-50
2021/08/17 05:51:15;;;;;;;;;18.25;17.00;;;;;17.00;48.69;101695.72;5080000;28;45645;-46
2021/08/17 05:53:41;;;;;;;;;22.00;12.50;;;;;16.99;48.42;101689.56;5078778;28;47023;-46
2021/08/17 05:56:06;;;;;;;;;19.75;12.75;;;;;17.03;48.82;101699.19;5079064;28;45811;-48
2021/08/17 05:58:31;;;;;;;;;16.50;13.00;;;;;17.05;48.96;101701.78;5080034;28;45381;-48
2021/08/17 06:00:57;;;;;;;;;19.25;17.00;;;;;17.05;48.60;101697.34;5081550;28;45502;-45
2021/08/17 06:03:22;;;;;;;;;16.25;14.00;;;;;16.98;48.68;101681.59;5082285;28;47061;-49
2021/08/17 06:05:48;;;;;;;;;15.75;13.50;;;;;17.09;48.72;101707.88;5083606;28;45296;-48
2021/08/17 06:08:13;;;;;;;;;16.00;13.75;;;;;17.09;48.97;101703.44;5082454;28;45256;-47
2021/08/17 06:10:38;;;;;;;;;15.50;14.25;;;;;17.04;49.15;101694.72;5083714;27;45465;-49
2021/08/17 06:13:04;;;;;;;;;16.25;12.00;;;;;17.06;48.92;101698.22;5083360;28;45493;-45
2021/08/17 06:15:29;;;;;;;;;14.25;13.75;;;;;17.08;49.21;101706.16;5083689;28;45418;-47
2021/08/17 06:18:01;;;;;;;;;21.25;17.00;;;;;17.07;49.06;101710.59;5082029;28;45887;-48
2021/08/17 06:20:27;;;;;;;;;15.75;13.75;;;;;17.10;49.17;101709.63;5082912;27;45399;-47
2021/08/17 06:22:52;;;;;;;;;16.25;15.00;;;;;17.09;49.41;101699.94;5082926;28;45497;-46
2021/08/17 06:25:18;;;;;;;;;16.75;15.25;;;;;17.11;49.26;101704.28;5083234;28;45351;-50
2021/08/17 06:27:43;;;;;;;;;17.50;14.75;;;;;17.11;49.38;101711.38;5083232;28;45314;-47
2021/08/17 06:30:08;;;;;;;;;16.50;15.50;;;;;17.12;49.13;101716.66;5083298;28;45441;-49
2021/08/17 06:32:34;;;;;;;;;15.75;13.50;;;;;17.14;49.38;101721.91;5083017;28;45222;-50
2021/08/17 06:34:59;;;;;;;;;17.50;15.25;;;;;17.15;49.55;101718.34;5083097;27;45343;-50
2021/08/17 06:37:25;;;;;;;;;18.25;13.25;;;;;17.13;49.17;101714.84;5081951;28;45278;-48
2021/08/17 06:39:50;;;;;;;;;22.25;14.25;;;;;17.13;49.52;101714.84;5083143;27;45516;-47
2021/08/17 06:42:15;;;;;;;;;18.75;14.50;;;;;17.15;49.65;101713.03;5082754;28;46279;-46
2021/08/17 06:44:40;;;;;;;;;16.50;15.50;;;;;17.17;49.57;101711.22;5081889;28;45568;-46
2021/08/17 06:47:06;;;;;;;;;16.25;14.00;;;;;17.18;49.21;101713.84;5083027;28;45741;-49
2021/08/17 06:49:31;;;;;;;;;18.75;13.50;;;;;17.19;49.62;101717.34;5083313;28;45294;-47
2021/08/17 06:51:57;;;;;;;;;15.50;13.25;;;;;17.24;49.40;101723.41;5082534;27;46317;-45
2021/08/17 06:54:22;;;;;;;;;23.25;15.75;;;;;17.24;49.40;101719.91;5081806;28;45274;-46
2021/08/17 06:56:47;;;;;;;;;14.00;13.50;;;;;17.27;49.57;101719.81;5082814;28;45212;-48
2021/08/17 06:59:12;;;;;;;;;15.25;14.25;;;;;17.21;49.48;101708.44;5082958;28;45432;-47
2021/08/17 07:01:38;;;;;;;;;15.50;15.50;;;;;17.33;49.51;101720.53;5082676;27;45447;-46
2021/08/17 07:04:03;;;;;;;;;19.00;13.75;;;;;17.40;49.38;101723.03;5082973;28;45254;-47
2021/08/17 07:06:29;;;;;;;;;15.25;13.75;;;;;17.44;49.71;101714.03;5082491;28;45245;-45
2021/08/17 07:08:55;;;;;;;;;16.75;15.50;;;;;17.49;49.38;101718.31;5082758;28;45621;-49
2021/08/17 07:11:21;;;;;;;;;17.00;13.75;;;;;17.51;49.49;101710.31;5082042;27;47139;-47
2021/08/17 07:13:46;;;;;;;;;17.75;14.50;;;;;17.57;49.65;101710.13;5081611;28;45384;-49
2021/08/17 07:16:12;;;;;;;;;15.00;14.50;;;;;17.62;49.43;101710.00;5082387;28;45313;-46
2021/08/17 07:18:37;;;;;;;;;14.50;12.00;;;;;17.67;49.36;101708.06;5082593;28;45317;-45
2021/08/17 07:21:03;;;;;;;;;13.50;12.25;;;;;17.73;49.63;101712.34;5080680;27;46021;-49
2021/08/17 07:23:28;;;;;;;;;15.75;14.75;;;;;17.79;49.51;101713.03;5082167;28;45475;-46
2021/08/17 07:25:53;;;;;;;;;11.50;11.25;;;;;17.83;49.43;101709.38;5082501;28;45235;-46
2021/08/17 07:28:19;;;;;;;;;15.00;15.00;;;;;17.87;49.54;101716.34;5082393;28;45560;-46
2021/08/17 07:30:45;;;;;;;;;15.00;14.25;;;;;17.93;49.40;101715.28;5082094;27;46060;-47
2021/08/17 07:33:11;;;;;;;;;16.50;14.25;;;;;17.98;49.62;101717.84;5080887;28;45396;-45
2021/08/17 07:35:36;;;;;;;;;15.75;12.25;;;;;17.95;49.59;101718.81;5082124;27;45261;-49
2021/08/17 07:38:02;;;;;;;;;22.25;13.50;;;;;18.05;49.42;101721.19;5064085;28;45489;-47
2021/08/17 07:40:28;;;;;;;;;16.75;10.50;;;;;18.08;49.51;101732.63;5081920;27;45228;-48
2021/08/17 07:42:53;;;;;;;;;20.50;15.50;;;;;18.10;49.44;101729.91;5080686;28;45189;-46
2021/08/17 07:45:19;;;;;;;;;16.25;13.25;;;;;18.13;49.48;101725.38;5082083;28;45217;-49
2021/08/17 07:47:45;;;;;;;;;17.00;17.00;;;;;18.16;49.31;101724.41;5082057;28;45448;-46
2021/08/17 07:50:12;;;;;;;;;21.25;15.50;;;;;18.21;49.49;101718.94;5081619;27;45218;-50
2021/08/17 07:52:38;;;;;;;;;14.75;14.50;;;;;18.24;49.58;101716.19;5082002;28;45295;-47
2021/08/17 07:55:05;;;;;;;;;12.25;11.50;;;;;18.31;49.33;101723.94;5080668;28;45347;-48
2021/08/17 07:57:31;;;;;;;;;16.25;14.00;;;;;18.35;49.64;101730.91;5081824;28;45493;-49
2021/08/17 07:59:57;;;;;;;;;18.00;13.50;;;;;18.38;49.53;101719.28;5081504;27;45315;-47
2021/08/17 08:02:23;;;;;;;;;20.25;16.75;;;;;18.38;49.64;101723.72;5081936;28;46462;-49
2021/08/17 08:04:48;;;;;;;;;19.00;17.00;;;;;18.34;49.36;101709.69;5081498;28;45393;-46
2021/08/17 08:07:14;;;;;;;;;17.25;15.25;;;;;18.42;49.33;101715.59;5081558;28;45235;-50
2021/08/17 08:09:39;;;;;;;;;18.75;15.00;;;;;18.47;49.47;101723.47;5081575;28;45224;-49
2021/08/17 08:12:06;;;;;;;;;25.75;16.75;;;;;18.56;49.32;101722.28;5081433;28;45222;-48
2021/08/17 08:14:32;;;;;;;;;19.75;14.25;;;;;18.57;49.25;101719.56;5081629;28;45543;-45
2021/08/17 08:16:58;;;;;;;;;18.25;14.25;;;;;18.65;49.36;101727.31;5081663;28;45318;-46
2021/08/17 08:19:24;;;;;;;;;18.00;14.75;;;;;18.69;49.43;101723.63;5081466;28;45404;-45
2021/08/17 08:21:50;;;;;;;;;13.25;11.75;;;;;18.75;49.50;101736.72;5080967;27;45323;-47
2021/08/17 08:24:15;;;;;;;;;16.50;14.25;;;;;18.77;49.56;101724.25;5081023;28;45512;-45
2021/08/17 08:26:41;;;;;;;;;13.25;11.00;;;;;18.87;49.25;101730.16;5081515;28;45438;-46
2021/08/17 08:29:06;;;;;;;;;15.75;11.00;;;;;18.95;49.50;101727.25;5081222;27;45687;-44
2021/08/17 08:31:32;;;;;;;;;11.50;11.00;;;;;19.05;49.24;101730.47;5081548;27;45398;-45
2021/08/17 08:33:57;;;;;;;;;12.25;10.75;;;;;19.09;49.37;101730.31;5080015;28;45181;-50
2021/08/17 08:36:23;;;;;;;;;13.50;11.50;;;;;19.14;49.42;101725.72;5081140;28;45231;-49
2021/08/17 08:38:48;;;;;;;;;14.00;12.25;;;;;19.25;49.51;101727.13;5081041;28;45330;-49
2021/08/17 08:41:16;;;;;;;;;14.25;12.25;;;;;19.31;49.20;101718.94;5081201;27;45315;-48
2021/08/17 08:43:45;;;;;;;;;12.00;9.25;;;;;19.34;49.36;101724.13;5081123;28;45528;-46
2021/08/17 08:46:16;;;;;;;;;16.75;14.75;;;;;19.41;49.24;101723.00;5081041;28;45315;-49
2021/08/17 08:48:45;;;;;;;;;15.75;12.75;;;;;19.46;49.40;101726.34;5080683;28;45371;-48
2021/08/17 08:51:11;;;;;;;;;12.25;12.25;;;;;19.53;49.12;101731.47;5079345;28;45319;-48
2021/08/17 08:53:38;;;;;;;;;14.00;11.50;;;;;19.60;49.23;101733.00;5079526;28;45358;-48
2021/08/17 08:56:03;;;;;;;;;7.25;7.25;;;;;19.73;48.88;101730.75;5081303;28;45429;-46
2021/08/17 08:58:29;;;;;;;;;10.50;8.50;;;;;19.78;49.35;101737.63;5080529;28;46368;-47
2021/08/17 09:00:56;;;;;;;;;12.25;11.25;;;;;19.86;48.96;101728.50;5080935;27;45258;-50
2021/08/17 09:03:45;;;;;;;;;11.50;9.50;;;;;19.95;49.30;101733.53;5080931;28;45283;-46
2021/08/17 09:06:17;;;;;;;;;11.25;9.75;;;;;19.98;49.48;101734.25;5079115;28;45705;-45
2021/08/17 09:08:42;;;;;;;;;10.00;7.75;;;;;20.03;49.37;101734.06;5079470;28;45370;-46
2021/08/17 09:11:15;;;;;;;;;12.25;9.25;;;;;20.07;48.85;101733.03;5080591;28;45314;-48
2021/08/17 09:13:40;;;;;;;;;10.50;8.25;;;;;20.10;48.93;101740.03;5080789;27;45215;-46
2021/08/17 09:16:29;;;;;;;;;9.50;8.50;;;;;20.12;48.86;101733.75;5080536;28;45473;-48
2021/08/17 09:18:55;;;;;;;;;10.50;8.25;;;;;20.14;48.88;101731.88;5080460;28;45464;-47
2021/08/17 09:21:40;;;;;;;;;10.75;8.00;;;;;20.18;48.30;101737.09;5079933;28;45331;-46
2021/08/17 09:24:33;;;;;;;;;8.50;8.00;;;;;20.18;48.41;101732.63;5080754;28;45273;-50
2021/08/17 09:27:10;;;;;;;;;9.00;8.50;;;;;20.22;48.14;101726.22;5078638;28;45535;-50
2021/08/17 09:29:42;;;;;;;;;7.75;7.75;;;;;20.25;48.26;101725.22;5080256;28;47505;-47
2021/08/17 09:32:17;;;;;;;;;8.25;6.50;;;;;20.28;47.87;101723.31;5080294;28;45357;-47
2021/08/17 09:34:53;;;;;;;;;9.75;6.75;;;;;20.30;47.97;101718.81;5079377;28;45363;-49
2021/08/17 09:37:19;;;;;;;;;11.50;9.00;;;;;20.32;48.22;101717.88;5080059;28;45402;-49
2021/08/17 09:39:48;;;;;;;;;11.50;11.50;;;;;20.34;47.58;101718.66;5080015;28;46272;-47
2021/08/17 09:42:15;;;;;;;;;13.50;9.50;;;;;20.34;47.65;101708.00;5079901;28;45267;-49
2021/08/17 09:44:43;;;;;;;;;11.50;8.75;;;;;20.36;47.94;101716.81;5080366;28;45253;-50
2021/08/17 09:47:08;;;;;;;;;9.25;7.00;;;;;20.33;47.26;101722.28;5078561;28;45283;-48
2021/08/17 09:49:34;;;;;;;;;11.50;8.25;;;;;20.33;47.51;101723.16;5079852;28;45318;-48
2021/08/17 09:52:12;;;;;;;;;11.00;8.00;;;;;20.32;46.96;101710.72;5079970;28;45634;-49
2021/08/17 09:54:47;;;;;;;;;10.25;8.25;;;;;20.35;47.19;101710.63;5080350;28;45297;-46
2021/08/17 09:57:13;;;;;;;;;12.25;9.00;;;;;20.35;47.07;101710.63;5080142;28;45171;-49
2021/08/17 09:59:41;;;;;;;;;10.25;9.25;;;;;20.35;46.98;101707.94;5079652;28;45252;-46
2021/08/17 10:02:07;;;;;;;;;12.50;10.50;;;;;20.37;46.90;101708.75;5079986;28;45215;-47
2021/08/17 10:04:34;;;;;;;;;10.75;10.25;;;;;20.39;46.99;101706.00;5079711;28;45331;-48
2021/08/17 10:07:03;;;;;;;;;10.50;8.75;;;;;20.37;47.38;101699.88;5079898;28;45461;-50
2021/08/17 10:09:33;;;;;;;;;12.50;11.00;;;;;20.38;46.82;101698.94;5079746;28;47318;-50
2021/08/17 10:11:58;;;;;;;;;11.00;10.25;;;;;20.37;47.32;101703.41;5079789;27;45386;-46
2021/08/17 10:14:24;;;;;;;;;11.00;9.25;;;;;20.36;47.26;101696.31;5078630;28;46848;-48
2021/08/17 10:16:50;;;;;;;;;13.00;12.00;;;;;20.34;46.81;101699.97;5079898;28;45338;-46
2021/08/17 10:19:22;;;;;;;;;9.25;8.50;;;;;20.27;46.76;101702.91;5079853;28;45235;-50
2021/08/17 10:21:50;;;;;;;;;9.25;8.00;;;;;20.23;46.85;101705.75;5079358;27;45355;-48
2021/08/17 10:24:24;;;;;;;;;15.25;8.75;;;;;20.17;46.93;101701.53;5079803;28;45337;-49
2021/08/17 10:26:50;;;;;;;;;8.75;8.50;;;;;20.13;47.15;101698.09;5079503;28;45282;-46
2021/08/17 10:29:27;;;;;;;;;7.50;6.50;;;;;20.10;47.16;101700.03;5061335;28;47828;-45
2021/08/17 10:31:53;;;;;;;;;8.25;8.25;;;;;20.06;46.90;101696.63;5079549;27;45243;-46
2021/08/17 10:34:36;;;;;;;;;4.00;2.75;;;;;20.05;47.09;101691.31;5079506;28;45189;-47
2021/08/17 10:37:21;;;;;;;;;9.00;6.25;;;;;20.03;46.64;101686.06;5079501;28;45325;-49
2021/08/17 10:39:46;;;;;;;;;8.00;8.00;;;;;20.07;46.51;101689.47;5079433;27;45364;-47
2021/08/17 10:42:26;;;;;;;;;7.00;6.25;;;;;20.10;46.78;101695.56;5079272;28;45191;-45
2021/08/17 10:44:52;;;;;;;;;10.25;4.50;;;;;20.16;46.38;101685.59;5079921;28;45247;-49
2021/08/17 10:47:34;;;;;;;;;9.00;7.25;;;;;20.19;46.54;101694.34;5081199;28;45491;-46
2021/08/17 10:50:00;;;;;;;;;8.50;8.50;;;;;20.24;46.81;101678.16;5082438;27;46238;-47
2021/08/17 10:52:27;;;;;;;;;10.00;8.00;;;;;20.28;47.03;101675.28;5083018;28;45250;-49
2021/08/17 10:55:20;;;;;;;;;9.25;7.00;;;;;20.38;46.88;101680.25;5082891;28;45341;-46
2021/08/17 10:57:52;;;;;;;;;8.50;6.75;;;;;20.47;46.50;101679.88;5082734;27;45275;-48
2021/08/17 11:00:48;;;;;;;;;9.75;8.00;;;;;20.53;46.86;101670.75;5082460;27;46136;-50
2021/08/17 11:03:14;;;;;;;;;8.50;7.25;;;;;20.58;46.44;101674.09;5081352;28;45623;-47
2021/08/17 11:05:52;;;;;;;;;7.75;7.00;;;;;20.61;46.74;101672.16;5082609;28;45374;-49
2021/08/17 11:08:32;;;;;;;;;9.25;8.00;;;;;20.67;46.60;101668.38;5082522;28;45462;-48
2021/08/17 11:10:59;;;;;;;;;12.75;9.75;;;;;20.72;46.56;101663.72;5082459;27;45456;-47